Time;durP1;ratioP1;P1;durP2;ratioP2;P2;SDS_P1;SDS_P2;PMS_P1;PMS_P2;Temp;Humidity;BMP_temperature;BMP_pressure;BME280_temperature;BME280_humidity;BME280_pressure;Samples;Min_cycle;Max_cycle;Signal;HPM_P1;HPM_P2
2023/12/20 08:31:57;;;;;;;6.35;3.28;;;;;;;4.01;100.00;96853.97;2095339;27;20571;-57
2023/12/20 08:33:02;;;;;;;5.90;2.75;;;;;;;5.05;98.01;96848.75;2091331;28;20314;-57
2023/12/20 08:34:04;;;;;;;3.67;2.00;;;;;;;5.83;93.08;96841.94;2089617;28;20191;-58
2023/12/20 08:35:08;;;;;;;9.07;2.67;;;;;;;6.49;88.26;96853.38;2091154;28;20673;-63
2023/12/20 08:36:10;;;;;;;11.27;2.40;;;;;;;6.58;85.16;96839.31;2089600;28;20197;-58
2023/12/20 08:37:14;;;;;;;3.38;1.38;;;;;;;6.97;82.98;96844.34;2080339;28;20221;-58
2023/12/20 08:38:17;;;;;;;8.35;1.77;;;;;;;7.37;81.65;96849.31;2080871;28;20235;-63
2023/12/20 08:39:19;;;;;;;3.30;1.55;;;;;;;7.24;80.33;96852.28;2082201;28;20294;-58
2023/12/20 08:40:20;;;;;;;6.43;1.92;;;;;;;7.34;80.76;96856.31;2078411;28;20201;-58
2023/12/20 08:41:22;;;;;;;7.25;3.47;;;;;;;7.61;79.46;96861.59;2079121;28;20200;-58
2023/12/20 08:42:24;;;;;;;6.88;1.35;;;;;;;7.62;78.06;96868.50;2079757;28;20219;-58
2023/12/20 08:43:26;;;;;;;3.60;1.52;;;;;;;7.59;78.35;96862.53;2079492;28;20196;-58
2023/12/20 08:44:27;;;;;;;5.32;1.80;;;;;;;7.71;77.18;96864.78;2082458;28;20378;-58
2023/12/20 08:45:29;;;;;;;3.42;1.30;;;;;;;8.06;76.37;96859.41;2083057;28;20809;-58
2023/12/20 08:46:30;;;;;;;2.67;1.20;;;;;;;7.84;75.92;96865.25;2077678;28;20205;-58
2023/12/20 08:47:32;;;;;;;6.70;1.35;;;;;;;8.64;75.21;96857.53;2080367;28;20215;-59
2023/12/20 08:48:33;;;;;;;3.35;1.65;;;;;;;8.98;73.21;96874.63;2082511;28;20192;-58
2023/12/20 08:49:35;;;;;;;3.67;1.20;;;;;;;8.93;73.49;96867.88;2080988;28;20197;-58
2023/12/20 08:50:37;;;;;;;4.97;1.33;;;;;;;9.07;73.16;96860.44;2078705;28;20796;-59
2023/12/20 08:51:40;;;;;;;6.15;1.40;;;;;;;8.95;72.03;96861.72;2078164;28;20232;-59
2023/12/20 08:52:42;;;;;;;7.18;1.52;;;;;;;9.60;70.59;96859.41;2082979;28;20211;-59
2023/12/20 08:53:45;;;;;;;3.65;1.20;;;;;;;9.59;70.27;96860.28;2082512;28;20232;-59
2023/12/20 08:54:47;;;;;;;2.58;1.15;;;;;;;9.32;70.11;96849.16;2080966;28;20197;-59
2023/12/20 08:55:49;;;;;;;3.63;1.35;;;;;;;9.62;69.33;96860.19;2085352;28;20228;-58
2023/12/20 08:56:50;;;;;;;6.88;1.13;;;;;;;9.79;68.80;96850.88;2084992;28;20531;-58
2023/12/20 08:57:52;;;;;;;4.25;1.10;;;;;;;9.65;67.98;96851.41;2082089;28;20208;-59
2023/12/20 08:58:53;;;;;;;4.95;1.10;;;;;;;9.70;69.73;96851.22;2078323;28;20204;-59
2023/12/20 08:59:55;;;;;;;5.68;1.60;;;;;;;10.57;68.33;96857.38;2080471;28;20223;-58
2023/12/20 09:00:57;;;;;;;8.30;1.20;;;;;;;10.85;65.79;96850.16;2081596;28;20204;-58
2023/12/20 09:01:59;;;;;;;5.00;1.30;;;;;;;10.79;66.39;96851.25;2080924;28;20274;-64
2023/12/20 09:03:02;;;;;;;4.28;1.30;;;;;;;9.51;67.15;96854.53;2078389;28;20608;-65
2023/12/20 09:04:03;;;;;;;3.58;1.17;;;;;;;9.55;68.24;96863.06;2081564;28;20232;-64
2023/12/20 09:05:05;;;;;;;4.00;1.30;;;;;;;10.00;67.94;96858.78;2080269;28;20220;-64
2023/12/20 09:06:07;;;;;;;4.25;1.27;;;;;;;10.38;66.65;96848.63;2080973;28;20208;-64
2023/12/20 09:07:30;;;;;;;3.38;1.00;;;;;;;10.21;66.58;96862.28;2081360;28;20224;-64
2023/12/20 09:08:32;;;;;;;4.00;1.30;;;;;;;10.06;66.21;96863.75;2082350;28;20201;-64
2023/12/20 09:09:33;;;;;;;7.10;1.20;;;;;;;10.63;65.63;96851.06;2081727;28;20236;-65
2023/12/20 09:10:35;;;;;;;3.92;1.08;;;;;;;10.34;64.30;96854.84;2081266;28;20210;-64
2023/12/20 09:11:36;;;;;;;5.32;1.45;;;;;;;10.44;64.99;96853.59;2081833;28;20216;-64
2023/12/20 09:12:40;;;;;;;8.63;1.50;;;;;;;10.89;63.70;96856.94;2078392;28;20560;-64
2023/12/20 09:13:42;;;;;;;10.45;2.25;;;;;;;10.26;64.69;96855.16;2079607;28;20619;-64
2023/12/20 09:14:44;;;;;;;10.10;2.20;;;;;;;10.26;65.25;96855.16;2081228;28;20208;-65
2023/12/20 09:15:45;;;;;;;6.95;1.50;;;;;;;10.42;64.80;96852.78;2081797;28;20201;-64
2023/12/20 09:16:47;;;;;;;4.03;1.70;;;;;;;10.59;63.21;96852.13;2081448;28;20434;-64
2023/12/20 09:17:48;;;;;;;8.40;1.58;;;;;;;10.77;63.47;96843.50;2082274;28;20205;-64
2023/12/20 09:18:51;;;;;;;7.88;1.60;;;;;;;11.27;62.20;96842.22;2082665;28;20219;-65
2023/12/20 09:19:53;;;;;;;5.07;1.40;;;;;;;10.86;62.06;96839.63;2082177;28;20201;-64
2023/12/20 09:20:55;;;;;;;5.00;1.20;;;;;;;10.36;62.92;96832.16;2081994;28;20262;-64
2023/12/20 09:21:57;;;;;;;3.95;1.52;;;;;;;10.69;62.76;96839.50;2079307;28;20217;-64
2023/12/20 09:22:58;;;;;;;4.55;1.30;;;;;;;9.72;64.11;96839.81;2080211;28;20194;-64
2023/12/20 09:24:00;;;;;;;5.43;1.30;;;;;;;10.08;64.15;96838.44;2082252;28;20622;-64
2023/12/20 09:25:04;;;;;;;3.38;1.02;;;;;;;9.72;63.97;96833.75;2083194;28;20201;-64
2023/12/20 09:26:06;;;;;;;6.47;1.45;;;;;;;9.28;64.59;96831.91;2078189;28;20623;-64
2023/12/20 09:27:07;;;;;;;2.70;1.17;;;;;;;9.15;65.22;96839.31;2079730;28;20299;-64
2023/12/20 09:28:09;;;;;;;6.88;1.38;;;;;;;9.12;66.49;96842.03;2083642;28;20204;-63
2023/12/20 09:29:15;;;;;;;3.50;1.00;;;;;;;9.41;65.01;96845.34;2085833;28;20200;-63
2023/12/20 09:30:16;;;;;;;8.23;1.67;;;;;;;9.66;65.14;96839.22;2084358;28;20196;-64
2023/12/20 09:31:28;;;;;;;3.35;1.10;;;;;;;9.89;64.60;96839.19;2078670;28;20239;-63
2023/12/20 09:32:29;;;;;;;4.18;1.13;;;;;;;9.75;65.36;96844.06;2079518;28;20276;-62
2023/12/20 09:33:31;;;;;;;5.80;1.50;;;;;;;9.30;64.83;96840.53;2084059;28;20205;-62
2023/12/20 09:34:33;;;;;;;4.32;1.50;;;;;;;9.30;65.46;96841.34;2081185;28;20197;-62
2023/12/20 09:35:35;;;;;;;7.65;1.67;;;;;;;9.57;65.51;96841.28;2081414;28;20242;-61
2023/12/20 09:36:40;;;;;;;5.15;1.48;;;;;;;10.08;65.03;96846.28;2080898;28;20523;-62
2023/12/20 09:37:44;;;;;;;5.82;1.48;;;;;;;9.86;63.91;96841.06;2082581;28;20197;-62
2023/12/20 09:38:46;;;;;;;6.05;1.08;;;;;;;9.78;63.97;96833.53;2081874;28;20336;-63
2023/12/20 09:39:48;;;;;;;7.78;1.75;;;;;;;9.59;64.97;96852.47;2083432;28;20660;-63
2023/12/20 09:40:50;;;;;;;5.55;1.20;;;;;;;10.37;63.16;96847.75;2084348;28;20303;-63
2023/12/20 09:42:01;;;;;;;3.10;1.10;;;;;;;10.43;62.78;96851.88;2077177;28;20217;-64
2023/12/20 09:43:02;;;;;;;6.03;1.80;;;;;;;10.42;62.88;96860.63;2076543;28;20208;-64
2023/12/20 09:44:04;;;;;;;6.00;1.38;;;;;;;9.30;64.78;96853.56;2076072;28;20517;-63
2023/12/20 09:45:09;;;;;;;7.15;1.60;;;;;;;10.11;64.16;96857.44;2075442;28;20206;-64
2023/12/20 09:46:11;;;;;;;7.20;1.80;;;;;;;8.46;65.45;96861.59;2075698;28;20296;-64
2023/12/20 09:47:15;;;;;;;4.80;1.50;;;;;;;7.15;70.95;96861.16;2074995;28;20220;-64
2023/12/20 09:48:19;;;;;;;4.28;1.58;;;;;;;6.62;73.12;96859.09;2076433;28;20289;-62
2023/12/20 09:49:21;;;;;;;3.47;1.20;;;;;;;6.00;75.44;96864.91;2074474;28;20247;-62
2023/12/20 09:50:23;;;;;;;5.07;1.20;;;;;;;5.68;76.39;96862.13;2079716;28;20197;-63
2023/12/20 09:51:27;;;;;;;8.80;1.75;;;;;;;5.40;77.88;96865.28;2078849;28;20201;-62
2023/12/20 09:52:29;;;;;;;9.18;1.40;;;;;;;5.05;78.90;96853.06;2074824;28;20241;-63
2023/12/20 09:53:35;;;;;;;5.82;1.80;;;;;;;4.99;81.13;96856.63;2076049;28;20212;-62
2023/12/20 09:54:37;;;;;;;6.65;1.80;;;;;;;4.67;80.59;96857.19;2075051;28;20248;-62
2023/12/20 09:55:41;;;;;;;11.77;1.88;;;;;;;4.63;82.69;96871.09;2075414;28;20272;-62
2023/12/20 09:56:43;;;;;;;10.23;1.70;;;;;;;4.38;83.09;96868.91;2075054;28;20789;-62
2023/12/20 09:57:49;;;;;;;7.18;1.67;;;;;;;4.25;83.72;96874.28;2081016;28;20283;-62
2023/12/20 09:58:51;;;;;;;10.18;1.80;;;;;;;4.12;84.81;96870.16;2080353;28;20229;-63
2023/12/20 09:59:53;;;;;;;8.77;2.17;;;;;;;4.11;85.50;96872.78;2079617;28;20731;-62
2023/12/20 10:00:55;;;;;;;8.55;2.30;;;;;;;3.99;85.28;96864.34;2079735;28;20209;-62
2023/12/20 10:01:59;;;;;;;8.65;1.92;;;;;;;3.88;86.62;96882.56;2074453;28;20221;-62
2023/12/20 10:03:01;;;;;;;8.75;1.80;;;;;;;3.87;86.89;96882.59;2075022;28;20197;-62
2023/12/20 10:04:09;;;;;;;6.07;2.13;;;;;;;3.85;87.83;96887.78;2074787;28;20204;-62
2023/12/20 10:05:20;;;;;;;6.53;2.15;;;;;;;3.93;88.35;96873.03;2076524;28;20312;-63
2023/12/20 10:06:22;;;;;;;14.15;2.08;;;;;;;3.84;88.01;96883.50;2076181;28;20835;-63
2023/12/20 10:07:24;;;;;;;5.78;1.75;;;;;;;4.01;88.31;96872.06;2075298;28;20205;-63
2023/12/20 10:08:26;;;;;;;10.10;2.22;;;;;;;3.95;88.86;96866.97;2074719;28;20293;-63
2023/12/20 10:09:31;;;;;;;7.63;2.28;;;;;;;3.66;87.79;96842.44;2072107;28;20205;-62
2023/12/20 10:10:32;;;;;;;5.45;1.70;;;;;;;3.81;88.50;96857.72;2073582;28;20816;-61
2023/12/20 10:11:46;;;;;;;7.78;1.63;;;;;;;3.66;89.19;96857.94;2075340;28;20248;-62
2023/12/20 10:17:49;;;;;;;10.60;2.20;;;;;;;3.70;90.93;96865.59;2092004;27;20546;-62
2023/12/20 10:18:53;;;;;;;12.85;2.20;;;;;;;3.74;89.77;96869.84;2088172;28;20207;-62
2023/12/20 10:19:55;;;;;;;10.13;2.60;;;;;;;3.82;89.41;96866.31;2090251;28;20294;-62
2023/12/20 10:25:26;;;;;;;12.88;1.42;;;;;;;3.46;88.85;96851.31;2106433;27;21149;-59
2023/12/20 10:26:29;;;;;;;15.90;3.03;;;;;;;3.54;88.76;96856.34;2103676;28;20206;-57
2023/12/20 10:27:31;;;;;;;11.90;3.78;;;;;;;3.58;89.23;96855.44;2090793;28;20230;-57
2023/12/20 10:28:34;;;;;;;16.85;4.10;;;;;;;3.63;88.91;96848.50;2090281;28;20207;-58
2023/12/20 10:29:38;;;;;;;7.18;2.05;;;;;;;3.63;88.04;96840.75;2090436;28;20199;-59
2023/12/20 10:30:41;;;;;;;18.35;2.65;;;;;;;3.70;88.09;96857.84;2091813;28;20210;-59
2023/12/20 10:31:45;;;;;;;8.15;2.22;;;;;;;3.67;86.88;96854.47;2093009;28;20223;-59
2023/12/20 10:38:04;;;;;;;6.28;2.25;;;;;;;3.48;85.64;96834.06;2093992;28;21082;-58
2023/12/20 10:39:09;;;;;;;3.85;1.30;;;;;;;3.45;84.30;96843.59;2088209;28;20210;-58
2023/12/20 10:40:13;;;;;;;11.07;1.65;;;;;;;3.50;84.34;96844.38;2089625;28;20227;-59
2023/12/20 10:41:18;;;;;;;4.35;1.25;;;;;;;3.60;84.07;96848.53;2091005;28;20203;-59
2023/12/20 10:42:21;;;;;;;9.50;1.00;;;;;;;3.91;83.44;96846.38;2081701;28;20730;-59
2023/12/20 10:43:26;;;;;;;5.28;1.13;;;;;;;4.41;81.58;96838.66;2080100;28;20212;-59
2023/12/20 10:44:28;;;;;;;8.63;1.70;;;;;;;4.34;82.52;96834.50;2085715;28;20235;-59
2023/12/20 10:45:30;;;;;;;3.97;1.40;;;;;;;4.45;81.43;96839.47;2085493;28;20242;-59
2023/12/20 10:46:34;;;;;;;14.23;2.10;;;;;;;4.08;82.64;96822.84;2081490;28;20200;-59
2023/12/20 10:47:38;;;;;;;6.30;2.08;;;;;;;3.98;83.88;96841.97;2080375;28;20196;-59
2023/12/20 10:52:42;;;;;;;15.07;2.40;;;;;;;3.62;85.26;96833.00;2086418;28;20548;-57
2023/12/20 10:53:47;;;;;;;5.93;1.58;;;;;;;3.66;86.14;96830.38;2086395;28;20207;-57
2023/12/20 10:54:52;;;;;;;4.65;2.13;;;;;;;3.67;86.14;96834.66;2085812;28;20220;-57
2023/12/20 10:55:56;;;;;;;9.93;2.58;;;;;;;3.83;86.27;96834.44;2085906;28;20204;-57
2023/12/20 11:02:05;;;;;;;6.18;2.15;;;;;;;3.69;88.34;96834.63;2110317;27;20575;-58
2023/12/20 11:06:51;;;;;;;6.68;1.83;;;;;;;3.53;88.32;96839.16;2081792;28;20568;-58
2023/12/20 11:11:52;;;;;;;7.85;1.90;;;;;;;3.45;86.91;96830.69;2078817;27;20557;-57
2023/12/20 11:17:18;;;;;;;8.65;1.83;;;;;;;3.31;86.48;96823.13;2080624;27;20564;-61
2023/12/20 11:18:19;;;;;;;12.55;1.92;;;;;;;3.39;86.97;96822.13;2080587;28;20308;-62
2023/12/20 11:23:59;;;;;;;12.17;1.97;;;;;;;3.47;86.10;96831.53;2076366;27;1219827;-59
2023/12/20 11:30:06;;;;;;;6.07;1.70;;;;;;;3.38;85.98;96822.16;2082906;28;20555;-59
2023/12/20 11:34:35;;;;;;;10.15;1.90;;;;;;;3.38;85.34;96804.09;2083625;27;20560;-61
2023/12/20 11:43:41;;;;;;;9.10;2.30;;;;;;;3.60;85.57;96823.56;2092613;28;20574;-61
2023/12/20 11:47:15;;;;;;;16.70;2.80;;;;;;;3.64;84.57;96818.34;2081181;27;20559;-61
2023/12/20 11:48:18;;;;;;;11.20;2.03;;;;;;;3.68;83.94;96817.44;2079266;28;20223;-61
2023/12/20 11:52:22;;;;;;;6.20;1.27;;;;;;;3.62;83.33;96807.19;2106293;27;20556;-62
2023/12/20 11:53:24;;;;;;;4.18;1.30;;;;;;;3.58;82.84;96799.50;2099697;28;20346;-62
2023/12/20 11:54:26;;;;;;;9.13;1.80;;;;;;;3.72;83.49;96798.41;2100850;28;20219;-62
2023/12/20 11:55:27;;;;;;;15.98;1.95;;;;;;;3.79;83.25;96804.38;2102081;28;20667;-62
2023/12/20 11:56:29;;;;;;;6.47;1.85;;;;;;;3.76;81.80;96790.63;2106290;27;20195;-62
2023/12/20 11:57:31;;;;;;;5.97;1.60;;;;;;;3.82;82.45;96797.44;2089065;28;20286;-62
2023/12/20 11:58:33;;;;;;;8.80;2.13;;;;;;;4.08;82.14;96786.66;2082003;28;20295;-62
2023/12/20 11:59:36;;;;;;;11.65;1.80;;;;;;;4.11;81.09;96790.91;2081830;28;20208;-62
2023/12/20 12:00:37;;;;;;;10.60;2.08;;;;;;;4.24;81.39;96796.72;2082257;28;20200;-59
2023/12/20 12:01:39;;;;;;;10.48;1.90;;;;;;;4.14;80.76;96796.06;2079999;28;20239;-59
2023/12/20 12:02:41;;;;;;;4.50;1.30;;;;;;;4.14;80.98;96800.34;2088976;28;20192;-59
2023/12/20 12:03:42;;;;;;;8.32;1.75;;;;;;;3.97;81.25;96798.06;2091692;28;20772;-59
2023/12/20 12:04:44;;;;;;;16.73;2.47;;;;;;;4.06;81.08;96793.59;2081426;28;20200;-59
2023/12/20 12:09:12;;;;;;;14.55;2.90;;;;;;;3.98;82.87;96792.03;2091205;27;20567;-57
2023/12/20 12:12:27;;;;;;;6.55;1.60;;;;;;;3.89;82.86;96793.84;2098223;27;20563;-58
2023/12/20 12:13:28;;;;;;;8.75;1.98;;;;;;;4.00;82.33;96790.25;2097928;28;20299;-59
2023/12/20 12:14:30;;;;;;;6.40;1.50;;;;;;;3.98;82.29;96798.03;2095044;28;20196;-62
2023/12/20 12:15:31;;;;;;;6.95;1.40;;;;;;;3.96;82.60;96797.22;2095333;28;20200;-61
2023/12/20 12:16:33;;;;;;;7.00;1.38;;;;;;;3.92;82.67;96792.94;2094282;28;20202;-62
2023/12/20 12:17:35;;;;;;;8.35;2.58;;;;;;;3.93;82.84;96794.66;2078372;28;20209;-63
2023/12/20 12:18:38;;;;;;;12.50;3.97;;;;;;;3.98;82.43;96798.03;2081281;28;20205;-63
2023/12/20 12:19:40;;;;;;;18.75;5.60;;;;;;;3.89;82.25;96793.00;2072839;28;20284;-63
2023/12/20 12:20:42;;;;;;;7.28;2.35;;;;;;;4.35;81.63;96789.66;2066256;28;20674;-62
2023/12/20 12:21:44;;;;;;;5.05;1.50;;;;;;;5.35;77.97;96773.91;2073658;28;20271;-62
2023/12/20 12:22:47;;;;;;;8.52;1.67;;;;;;;5.10;76.77;96789.09;2073939;28;20529;-59
2023/12/20 12:23:49;;;;;;;5.57;1.65;;;;;;;4.70;78.41;96788.16;2073642;28;20198;-59
2023/12/20 12:24:50;;;;;;;12.13;1.55;;;;;;;4.63;78.46;96788.31;2081616;28;20228;-59
2023/12/20 12:25:55;;;;;;;9.80;1.75;;;;;;;4.51;79.81;96794.56;2079585;28;20616;-59
2023/12/20 12:26:57;;;;;;;5.13;1.77;;;;;;;4.48;80.19;96792.88;2081560;28;20270;-59
2023/12/20 12:27:59;;;;;;;5.78;1.40;;;;;;;4.35;80.07;96784.47;2080661;28;20201;-59
2023/12/20 12:29:01;;;;;;;8.70;2.30;;;;;;;4.30;80.93;96783.69;2080879;28;20201;-59
2023/12/20 12:30:04;;;;;;;6.75;1.90;;;;;;;4.16;80.89;96778.78;2072518;28;20200;-59
2023/12/20 12:41:52;;;;;;;10.38;1.85;;;;;;;3.59;83.82;96797.75;2092573;27;20576;-61
2023/12/20 12:54:01;;;;;;;6.22;1.40;;;;;;;3.31;84.72;96772.31;2084101;27;20546;-60
2023/12/20 12:57:40;;;;;;;5.47;1.30;;;;;;;3.38;85.00;96778.28;2082549;28;21323;-59
2023/12/20 12:58:42;;;;;;;13.70;1.77;;;;;;;3.30;85.15;96743.97;2081822;28;20224;-60
2023/12/20 12:59:46;;;;;;;7.07;2.00;;;;;;;3.56;84.65;96785.75;2082491;28;20205;-59
2023/12/20 13:00:47;;;;;;;8.45;2.28;;;;;;;3.59;84.24;96779.69;2082781;28;20207;-60
2023/12/20 13:01:49;;;;;;;3.70;1.35;;;;;;;4.08;83.78;96780.66;2075022;28;20318;-60
2023/12/20 13:02:51;;;;;;;19.98;1.95;;;;;;;4.36;81.51;96772.41;2073925;28;20194;-60
2023/12/20 13:03:54;;;;;;;5.68;1.30;;;;;;;4.50;81.68;96775.59;2070318;28;20240;-60
2023/12/20 13:04:56;;;;;;;8.07;1.63;;;;;;;5.20;79.69;96769.06;2072257;28;20653;-60
2023/12/20 13:05:57;;;;;;;6.95;1.30;;;;;;;5.45;78.42;96771.97;2070391;28;20248;-62
2023/12/20 13:06:59;;;;;;;8.88;1.60;;;;;;;5.95;77.38;96766.47;2072637;28;20275;-60
2023/12/20 13:08:00;;;;;;;5.45;1.70;;;;;;;6.09;76.32;96771.34;2072738;28;20201;-60
2023/12/20 13:09:02;;;;;;;10.45;1.55;;;;;;;5.64;75.67;96761.19;2072805;28;20691;-60
2023/12/20 13:10:04;;;;;;;8.98;1.95;;;;;;;5.26;77.31;96763.75;2075311;28;20202;-60
2023/12/20 13:11:05;;;;;;;5.78;1.00;;;;;;;5.07;77.82;96771.06;2070323;28;20193;-60
2023/12/20 13:12:07;;;;;;;6.43;1.52;;;;;;;4.86;78.39;96764.56;2069746;28;20229;-59
2023/12/20 13:13:09;;;;;;;9.27;1.63;;;;;;;5.55;77.28;96768.28;2075707;28;20293;-60
2023/12/20 13:14:15;;;;;;;5.43;1.50;;;;;;;5.93;76.35;96770.00;2075014;28;20197;-60
2023/12/20 13:15:16;;;;;;;6.18;1.38;;;;;;;6.25;74.59;96760.59;2073887;28;20201;-61
2023/12/20 13:16:18;;;;;;;3.67;1.30;;;;;;;6.31;73.59;96752.66;2074019;28;20202;-60
2023/12/20 13:17:19;;;;;;;13.15;2.17;;;;;;;6.26;72.81;96767.50;2073913;28;20274;-59
2023/12/20 13:18:22;;;;;;;5.95;1.60;;;;;;;5.62;74.88;96774.16;2074379;28;20665;-60
2023/12/20 13:19:23;;;;;;;9.15;1.35;;;;;;;5.18;76.45;96778.56;2080947;28;20200;-60
2023/12/20 13:20:25;;;;;;;8.80;1.80;;;;;;;5.18;77.53;96776.84;2081511;28;20764;-58
2023/12/20 13:21:26;;;;;;;5.28;1.27;;;;;;;5.11;77.91;96782.19;2072774;28;20200;-58
2023/12/20 13:22:28;;;;;;;5.75;1.60;;;;;;;4.87;78.15;96795.56;2070138;28;20285;-58
2023/12/20 13:23:30;;;;;;;8.55;1.52;;;;;;;4.81;78.81;96798.31;2070947;28;20202;-57
2023/12/20 13:24:32;;;;;;;8.15;1.50;;;;;;;4.66;78.96;96798.56;2074301;28;20198;-58
2023/12/20 13:25:33;;;;;;;11.63;1.75;;;;;;;4.46;79.66;96797.22;2073964;28;20200;-58
2023/12/20 13:26:36;;;;;;;6.55;1.80;;;;;;;4.50;79.97;96793.69;2071803;28;20198;-59
2023/12/20 13:27:37;;;;;;;10.77;1.40;;;;;;;4.51;79.90;96799.75;2073157;28;20197;-59
2023/12/20 13:28:39;;;;;;;9.10;1.75;;;;;;;4.39;80.51;96790.44;2071626;28;20236;-60
2023/12/20 13:29:40;;;;;;;5.03;1.55;;;;;;;4.46;80.66;96786.88;2074410;28;20209;-60
2023/12/20 13:30:41;;;;;;;17.42;1.75;;;;;;;4.40;80.32;96787.81;2075051;28;20237;-60
2023/12/20 13:31:43;;;;;;;6.75;1.42;;;;;;;4.21;81.12;96791.63;2073229;28;20308;-60
